Time;durP1;ratioP1;P1;durP2;ratioP2;P2;SDS_P1;SDS_P2;PMS_P1;PMS_P2;Temp;Humidity;BMP_temperature;BMP_pressure;BME280_temperature;BME280_humidity;BME280_pressure;Samples;Min_cycle;Max_cycle;Signal;HPM_P1;HPM_P2
2022/02/06 00:01:40;;;;;;;22.13;3.40;;;;;;;;;;5077619;28;20491;-69
2022/02/06 00:04:06;;;;;;;12.23;3.22;;;;;;;;;;5096066;28;20016;-73
2022/02/06 00:06:34;;;;;;;11.90;3.63;;;;;;;;;;5096310;28;20024;-71
2022/02/06 00:09:00;;;;;;;12.60;3.30;;;;;;;;;;5077894;28;20456;-73
2022/02/06 00:11:26;;;;;;;13.45;3.35;;;;;;;;;;5095891;28;20021;-71
2022/02/06 00:13:52;;;;;;;12.57;3.55;;;;;;;;;;5096004;28;20451;-71
2022/02/06 00:16:18;;;;;;;12.55;3.28;;;;;;;;;;5095692;28;20476;-71
2022/02/06 00:18:45;;;;;;;12.77;3.83;;;;;;;;;;5083380;28;20203;-70
2022/02/06 00:21:14;;;;;;;13.82;3.60;;;;;;;;;;5107896;28;20051;-72
2022/02/06 00:23:42;;;;;;;11.93;3.72;;;;;;;;;;5085966;28;20020;-71
2022/02/06 00:26:22;;;;;;;12.52;3.63;;;;;;;;;;5096814;28;20040;-74
2022/02/06 00:31:57;;;;;;;15.88;3.50;;;;;;;;;;5096911;28;20027;-70
2022/02/06 00:39:43;;;;;;;14.93;3.70;;;;;;;;;;5110325;27;20043;-69
2022/02/06 00:42:10;;;;;;;15.38;3.75;;;;;;;;;;5110983;27;20543;-70
2022/02/06 00:44:36;;;;;;;14.63;4.00;;;;;;;;;;5092713;28;20016;-69
2022/02/06 00:47:03;;;;;;;14.88;3.53;;;;;;;;;;5082941;28;20038;-73
2022/02/06 00:49:30;;;;;;;12.75;3.72;;;;;;;;;;5103578;28;20012;-70
2022/02/06 00:52:09;;;;;;;13.48;3.58;;;;;;;;;;5094350;28;20070;-71
2022/02/06 00:54:35;;;;;;;10.73;3.50;;;;;;;;;;5101334;27;20026;-71
2022/02/06 00:57:01;;;;;;;15.45;3.75;;;;;;;;;;5108962;27;20055;-69
2022/02/06 00:59:27;;;;;;;14.13;3.70;;;;;;;;;;5136117;27;20011;-69
2022/02/06 01:01:53;;;;;;;18.10;3.65;;;;;;;;;;5135335;27;20035;-70
2022/02/06 01:04:19;;;;;;;14.70;3.70;;;;;;;;;;5135764;27;20019;-70
2022/02/06 01:06:46;;;;;;;16.55;3.78;;;;;;;;;;5135647;27;20027;-69
2022/02/06 01:09:12;;;;;;;19.67;4.20;;;;;;;;;;5135673;27;20019;-71
2022/02/06 01:11:39;;;;;;;12.85;3.85;;;;;;;;;;5101723;28;20092;-74
2022/02/06 01:16:37;;;;;;;13.80;3.97;;;;;;;;;;5114682;28;20024;-70
2022/02/06 01:19:12;;;;;;;16.52;4.30;;;;;;;;;;5096623;28;20028;-69
2022/02/06 01:21:48;;;;;;;13.52;3.78;;;;;;;;;;5096496;28;20028;-73
2022/02/06 01:24:37;;;;;;;15.75;3.90;;;;;;;;;;5114601;28;20129;-70
2022/02/06 01:27:14;;;;;;;14.25;3.92;;;;;;;;;;5114196;28;20032;-70
2022/02/06 01:30:01;;;;;;;19.27;3.97;;;;;;;;;;5106002;28;20034;-69
2022/02/06 01:32:39;;;;;;;18.17;4.10;;;;;;;;;;5114776;28;20038;-69
2022/02/06 01:35:13;;;;;;;14.73;3.75;;;;;;;;;;5114657;28;20035;-68
2022/02/06 01:37:50;;;;;;;13.75;3.97;;;;;;;;;;5114561;28;20026;-69
2022/02/06 01:40:31;;;;;;;12.75;4.18;;;;;;;;;;5102015;28;20526;-72
2022/02/06 01:43:08;;;;;;;16.52;3.35;;;;;;;;;;5075686;28;20031;-68
2022/02/06 01:46:00;;;;;;;15.48;4.38;;;;;;;;;;5103976;28;20027;-69
2022/02/06 02:12:58;;;;;;;19.70;4.63;;;;;;;;;;5093007;28;20043;-71
2022/02/06 02:31:03;;;;;;;17.02;4.28;;;;;;;;;;5097375;27;20123;-71
2022/02/06 02:47:29;;;;;;;18.10;4.43;;;;;;;;;;5105324;28;20073;-71
2022/02/06 02:49:58;;;;;;;13.73;3.83;;;;;;;;;;5092917;28;20084;-72
2022/02/06 02:57:59;;;;;;;17.20;4.18;;;;;;;;;;5093140;28;20513;-72
2022/02/06 03:00:41;;;;;;;18.10;4.50;;;;;;;;;;5098711;28;20035;-72
2022/02/06 03:03:21;;;;;;;20.42;4.25;;;;;;;;;;5101006;28;20035;-71
2022/02/06 03:05:50;;;;;;;13.52;3.42;;;;;;;;;;5092774;28;20020;-70
2022/02/06 03:08:16;;;;;;;15.77;3.95;;;;;;;;;;5074810;28;20085;-71
2022/02/06 03:10:43;;;;;;;13.55;3.42;;;;;;;;;;5092689;28;20076;-69
2022/02/06 03:13:12;;;;;;;10.48;3.60;;;;;;;;;;5074672;28;20403;-74
2022/02/06 03:15:45;;;;;;;17.63;3.80;;;;;;;;;;5092374;28;20039;-72
2022/02/06 03:18:19;;;;;;;15.95;4.00;;;;;;;;;;5092912;28;20028;-73
2022/02/06 03:20:46;;;;;;;15.45;4.25;;;;;;;;;;5092375;28;20036;-70
2022/02/06 03:23:14;;;;;;;13.23;3.50;;;;;;;;;;5075542;28;20110;-76
2022/02/06 03:25:52;;;;;;;20.33;4.07;;;;;;;;;;5096777;28;20048;-71
2022/02/06 03:28:19;;;;;;;13.73;3.78;;;;;;;;;;5096956;28;20020;-72
2022/02/06 03:30:45;;;;;;;10.75;3.20;;;;;;;;;;5102243;28;20023;-71
2022/02/06 03:33:11;;;;;;;17.50;4.05;;;;;;;;;;5114762;27;20120;-71
2022/02/06 03:35:38;;;;;;;19.33;4.20;;;;;;;;;;5119248;27;20033;-71
2022/02/06 03:38:04;;;;;;;14.27;3.70;;;;;;;;;;5137513;27;20061;-70
2022/02/06 03:40:35;;;;;;;11.52;3.72;;;;;;;;;;5122588;27;20024;-70
2022/02/06 03:43:09;;;;;;;11.88;4.43;;;;;;;;;;5116618;28;20096;-69
2022/02/06 03:45:43;;;;;;;14.27;3.40;;;;;;;;;;5116804;28;20026;-72
2022/02/06 03:48:28;;;;;;;15.32;3.67;;;;;;;;;;5096579;28;20070;-72
2022/02/06 03:50:59;;;;;;;14.15;4.00;;;;;;;;;;5099414;28;20662;-72
2022/02/06 03:53:26;;;;;;;19.67;3.70;;;;;;;;;;5116758;28;20026;-72
2022/02/06 03:55:54;;;;;;;15.00;4.25;;;;;;;;;;5116443;28;20064;-73
2022/02/06 03:58:20;;;;;;;15.38;3.97;;;;;;;;;;5116721;28;20024;-71
2022/02/06 04:00:46;;;;;;;15.93;3.70;;;;;;;;;;5116452;28;20487;-72
2022/02/06 04:03:12;;;;;;;16.13;3.72;;;;;;;;;;5116437;28;20027;-72
2022/02/06 04:05:44;;;;;;;12.93;3.55;;;;;;;;;;5116545;28;20070;-70
2022/02/06 04:08:13;;;;;;;11.45;3.28;;;;;;;;;;5116354;28;20016;-72
2022/02/06 04:10:44;;;;;;;14.68;3.72;;;;;;;;;;5109473;28;20027;-71
2022/02/06 04:13:16;;;;;;;15.55;3.35;;;;;;;;;;5095750;28;20361;-71
2022/02/06 04:15:48;;;;;;;15.23;3.57;;;;;;;;;;5095889;28;20020;-74
2022/02/06 04:18:26;;;;;;;20.90;3.53;;;;;;;;;;5097256;28;20108;-71
2022/02/06 04:20:52;;;;;;;14.73;3.85;;;;;;;;;;5111984;28;20564;-71
2022/02/06 04:23:19;;;;;;;13.38;3.78;;;;;;;;;;5095228;28;20020;-72
2022/02/06 04:25:45;;;;;;;13.82;3.92;;;;;;;;;;5095557;28;20403;-71
2022/02/06 04:28:11;;;;;;;14.23;3.67;;;;;;;;;;5095578;28;20024;-70
2022/02/06 04:30:37;;;;;;;14.43;3.92;;;;;;;;;;5095477;28;20028;-72
2022/02/06 04:33:07;;;;;;;18.00;3.70;;;;;;;;;;5095468;28;20024;-70
2022/02/06 04:35:36;;;;;;;13.27;3.90;;;;;;;;;;5095552;28;20034;-71
2022/02/06 04:38:28;;;;;;;17.17;4.05;;;;;;;;;;5115904;28;20398;-72
2022/02/06 04:44:09;;;;;;;16.40;4.18;;;;;;;;;;5095615;28;20131;-71
2022/02/06 04:50:16;;;;;;;13.35;3.75;;;;;;;;;;5095758;28;20449;-72
2022/02/06 05:26:36;;;;;;;20.98;4.00;;;;;;;;;;5096758;28;20115;-71
2022/02/06 05:29:15;;;;;;;21.15;3.78;;;;;;;;;;5103776;27;20561;-76
2022/02/06 05:34:18;;;;;;;18.20;3.63;;;;;;;;;;5099276;28;20027;-71
2022/02/06 05:36:44;;;;;;;16.70;3.40;;;;;;;;;;5099876;28;20027;-72
2022/02/06 05:39:10;;;;;;;20.70;3.53;;;;;;;;;;5111897;27;20143;-70
2022/02/06 05:41:36;;;;;;;19.98;3.75;;;;;;;;;;5129981;27;20101;-72
2022/02/06 05:44:03;;;;;;;18.10;3.83;;;;;;;;;;5109877;28;20050;-74
2022/02/06 05:46:29;;;;;;;20.67;3.92;;;;;;;;;;5097382;28;20093;-72
2022/02/06 05:48:55;;;;;;;28.35;3.63;;;;;;;;;;5122646;27;20422;-71
2022/02/06 05:51:21;;;;;;;20.67;3.58;;;;;;;;;;5109797;28;20038;-73
2022/02/06 05:53:47;;;;;;;23.08;3.92;;;;;;;;;;5114487;28;20020;-72
2022/02/06 05:56:16;;;;;;;13.13;3.45;;;;;;;;;;5113673;28;20060;-71
2022/02/06 05:58:42;;;;;;;18.67;3.90;;;;;;;;;;5105979;28;20016;-70
2022/02/06 06:01:09;;;;;;;16.13;2.75;;;;;;;;;;5112825;28;20028;-65
2022/02/06 06:03:35;;;;;;;19.23;3.40;;;;;;;;;;5089541;28;20372;-72
2022/02/06 06:06:01;;;;;;;17.02;3.78;;;;;;;;;;5100750;28;20133;-71
2022/02/06 06:08:27;;;;;;;17.80;4.13;;;;;;;;;;5083799;28;20020;-71
2022/02/06 06:10:53;;;;;;;21.50;4.53;;;;;;;;;;5102329;28;20015;-69
2022/02/06 06:13:19;;;;;;;19.33;4.40;;;;;;;;;;5085934;28;20026;-69
2022/02/06 06:15:45;;;;;;;22.02;4.80;;;;;;;;;;5111176;28;20023;-72
2022/02/06 06:18:13;;;;;;;23.67;4.40;;;;;;;;;;5095166;28;20077;-72
2022/02/06 06:20:42;;;;;;;20.15;4.60;;;;;;;;;;5106648;28;20067;-70
2022/02/06 06:23:08;;;;;;;18.95;4.55;;;;;;;;;;5102372;28;20024;-72
2022/02/06 06:25:39;;;;;;;23.48;4.47;;;;;;;;;;5104309;28;20439;-69
2022/02/06 06:28:06;;;;;;;23.33;4.20;;;;;;;;;;5103018;28;20024;-70
2022/02/06 06:30:35;;;;;;;21.02;4.22;;;;;;;;;;5094947;28;20541;-69
2022/02/06 06:33:01;;;;;;;17.83;3.97;;;;;;;;;;5087252;28;20020;-69
2022/02/06 06:35:29;;;;;;;19.33;4.03;;;;;;;;;;5114501;27;20027;-71
2022/02/06 06:37:58;;;;;;;20.67;4.78;;;;;;;;;;5088176;28;20047;-69
2022/02/06 06:40:23;;;;;;;19.17;4.40;;;;;;;;;;5102104;28;20402;-71
2022/02/06 06:42:49;;;;;;;18.95;4.40;;;;;;;;;;5099956;28;20023;-69
2022/02/06 06:45:15;;;;;;;21.23;4.45;;;;;;;;;;5100651;28;20088;-69
2022/02/06 06:47:42;;;;;;;17.17;3.85;;;;;;;;;;5105262;28;20399;-69
2022/02/06 06:50:08;;;;;;;21.42;4.50;;;;;;;;;;5101007;28;20024;-69
2022/02/06 06:52:34;;;;;;;19.77;4.53;;;;;;;;;;5101042;28;20036;-69
2022/02/06 06:55:03;;;;;;;22.67;5.35;;;;;;;;;;5104291;28;20046;-69
2022/02/06 06:57:36;;;;;;;17.95;4.82;;;;;;;;;;5083236;28;20047;-69
2022/02/06 07:02:32;;;;;;;20.45;4.25;;;;;;;;;;5096527;28;20115;-69
2022/02/06 07:04:59;;;;;;;23.13;4.85;;;;;;;;;;5080759;28;20028;-70
2022/02/06 07:07:26;;;;;;;18.45;4.45;;;;;;;;;;5111255;28;20145;-69
2022/02/06 07:09:52;;;;;;;23.27;4.80;;;;;;;;;;5102318;28;20036;-70
2022/02/06 07:12:19;;;;;;;18.77;3.63;;;;;;;;;;5102981;28;20043;-71
2022/02/06 07:14:45;;;;;;;20.45;4.53;;;;;;;;;;5108036;28;20032;-71
2022/02/06 07:17:12;;;;;;;24.02;4.60;;;;;;;;;;5122135;28;20069;-69
2022/02/06 07:19:38;;;;;;;19.27;4.13;;;;;;;;;;5109994;28;20119;-68
2022/02/06 07:22:05;;;;;;;18.13;4.35;;;;;;;;;;5101411;28;20047;-69
2022/02/06 07:24:33;;;;;;;18.52;4.45;;;;;;;;;;5082485;28;20054;-70
2022/02/06 07:27:02;;;;;;;22.88;5.07;;;;;;;;;;5106355;28;20016;-71
2022/02/06 07:29:28;;;;;;;20.90;4.80;;;;;;;;;;5107052;28;20020;-72
2022/02/06 07:31:56;;;;;;;21.75;4.70;;;;;;;;;;5104171;28;20039;-70
2022/02/06 07:34:22;;;;;;;21.95;4.60;;;;;;;;;;5106528;28;20065;-69
2022/02/06 07:36:48;;;;;;;23.20;4.38;;;;;;;;;;5107964;28;20051;-69
2022/02/06 07:39:14;;;;;;;20.05;4.38;;;;;;;;;;5106950;28;20027;-70
2022/02/06 07:41:41;;;;;;;20.65;4.45;;;;;;;;;;5088016;28;20038;-64
2022/02/06 07:44:07;;;;;;;27.90;5.55;;;;;;;;;;5104666;28;20095;-73
2022/02/06 07:46:42;;;;;;;22.45;4.57;;;;;;;;;;5084057;28;20439;-71
2022/02/06 07:49:08;;;;;;;29.67;5.45;;;;;;;;;;5106446;28;20012;-70
2022/02/06 07:51:35;;;;;;;20.40;4.22;;;;;;;;;;5102812;28;20073;-65
2022/02/06 07:54:01;;;;;;;22.08;4.50;;;;;;;;;;5099484;28;20447;-65
2022/02/06 07:56:27;;;;;;;22.42;4.95;;;;;;;;;;5108789;28;20100;-67
2022/02/06 07:58:53;;;;;;;24.95;5.30;;;;;;;;;;5107606;28;20429;-67
2022/02/06 08:01:19;;;;;;;20.60;5.20;;;;;;;;;;5110234;28;20035;-66
2022/02/06 08:03:45;;;;;;;24.05;4.97;;;;;;;;;;5098920;28;20023;-71
2022/02/06 08:06:12;;;;;;;27.65;4.95;;;;;;;;;;5103948;28;20033;-66
2022/02/06 08:08:39;;;;;;;21.45;4.85;;;;;;;;;;5124843;28;20022;-65
2022/02/06 08:11:11;;;;;;;20.25;4.97;;;;;;;;;;5107707;28;20024;-68
2022/02/06 08:13:50;;;;;;;24.52;4.90;;;;;;;;;;5108612;28;20055;-67
2022/02/06 08:16:17;;;;;;;23.00;5.22;;;;;;;;;;5093911;28;20027;-66
2022/02/06 08:18:43;;;;;;;22.05;5.20;;;;;;;;;;5110342;28;20526;-68
2022/02/06 08:21:09;;;;;;;26.23;5.60;;;;;;;;;;5106700;28;20149;-68
2022/02/06 08:23:35;;;;;;;23.80;4.40;;;;;;;;;;5111629;28;20038;-70
2022/02/06 08:26:02;;;;;;;22.83;5.20;;;;;;;;;;5107387;28;20020;-70
2022/02/06 08:28:27;;;;;;;21.80;5.53;;;;;;;;;;5107370;28;20016;-70
2022/02/06 08:30:54;;;;;;;26.55;4.88;;;;;;;;;;5105982;28;20379;-67
2022/02/06 08:33:19;;;;;;;18.23;4.72;;;;;;;;;;5110576;27;20024;-70
2022/02/06 08:35:46;;;;;;;24.27;5.32;;;;;;;;;;5112519;28;20031;-65
2022/02/06 08:38:12;;;;;;;23.27;5.13;;;;;;;;;;5102645;28;20021;-69
2022/02/06 08:40:39;;;;;;;27.38;5.65;;;;;;;;;;5101175;28;20413;-64
2022/02/06 08:43:05;;;;;;;22.98;4.75;;;;;;;;;;5097273;28;20028;-69
2022/02/06 08:45:31;;;;;;;22.33;5.10;;;;;;;;;;5100059;28;20085;-66
2022/02/06 08:47:58;;;;;;;37.30;5.38;;;;;;;;;;5097013;28;20028;-69
2022/02/06 08:50:24;;;;;;;36.45;5.20;;;;;;;;;;5083064;28;20035;-78
2022/02/06 08:52:50;;;;;;;23.60;4.95;;;;;;;;;;5085067;28;20073;-63
2022/02/06 08:55:17;;;;;;;28.05;4.43;;;;;;;;;;5102511;28;20074;-67
2022/02/06 08:57:47;;;;;;;24.30;4.10;;;;;;;;;;5101085;28;20051;-67
2022/02/06 09:00:14;;;;;;;32.50;4.97;;;;;;;;;;5082377;28;20064;-67
2022/02/06 09:02:40;;;;;;;28.23;4.38;;;;;;;;;;5105532;28;20114;-72
2022/02/06 09:05:06;;;;;;;43.70;5.50;;;;;;;;;;5107293;27;20027;-71
2022/02/06 09:07:32;;;;;;;29.63;5.03;;;;;;;;;;5080159;28;20047;-67
2022/02/06 09:10:01;;;;;;;37.17;4.90;;;;;;;;;;5105924;28;20462;-76
2022/02/06 09:12:27;;;;;;;30.45;3.95;;;;;;;;;;5098375;28;20020;-69
2022/02/06 09:14:53;;;;;;;18.63;4.40;;;;;;;;;;5092900;28;20446;-70
2022/02/06 09:17:20;;;;;;;22.38;5.00;;;;;;;;;;5104086;28;20035;-72
2022/02/06 09:19:46;;;;;;;22.17;4.70;;;;;;;;;;5110137;28;20020;-71
2022/02/06 09:22:13;;;;;;;16.92;4.43;;;;;;;;;;5106985;28;20118;-79
2022/02/06 09:24:39;;;;;;;20.92;4.10;;;;;;;;;;5105261;28;20406;-70
2022/02/06 09:27:09;;;;;;;22.40;4.45;;;;;;;;;;5098470;28;20052;-68
2022/02/06 09:29:36;;;;;;;21.65;4.00;;;;;;;;;;5112881;28;20031;-69
2022/02/06 09:37:05;;;;;;;18.20;4.40;;;;;;;;;;5100748;28;20040;-77
2022/02/06 09:39:34;;;;;;;19.83;3.50;;;;;;;;;;5115424;28;20019;-69
2022/02/06 09:42:00;;;;;;;21.85;4.88;;;;;;;;;;5115621;28;20035;-69
2022/02/06 09:44:28;;;;;;;17.38;3.95;;;;;;;;;;5097029;28;20107;-81
2022/02/06 09:46:55;;;;;;;16.08;3.90;;;;;;;;;;5094830;28;20103;-72
2022/02/06 09:49:22;;;;;;;20.02;4.45;;;;;;;;;;5088528;28;20019;-71
2022/02/06 09:51:48;;;;;;;20.25;4.20;;;;;;;;;;5096260;28;20493;-72
2022/02/06 09:54:14;;;;;;;14.38;3.97;;;;;;;;;;5096327;28;20127;-72
2022/02/06 09:56:45;;;;;;;19.50;4.35;;;;;;;;;;5096316;28;20082;-72
2022/02/06 09:59:18;;;;;;;19.92;4.13;;;;;;;;;;5114221;28;20360;-72
2022/02/06 10:01:44;;;;;;;19.25;4.30;;;;;;;;;;5094078;28;20039;-71
2022/02/06 10:04:11;;;;;;;18.73;3.75;;;;;;;;;;5093950;28;20063;-71
2022/02/06 10:07:04;;;;;;;13.05;2.97;;;;;;;;;;5094060;28;20024;-72
2022/02/06 10:09:31;;;;;;;16.65;3.97;;;;;;;;;;5090542;28;20075;-72
2022/02/06 10:11:58;;;;;;;18.10;4.10;;;;;;;;;;5094021;28;20028;-71
2022/02/06 10:14:25;;;;;;;19.92;3.70;;;;;;;;;;5075579;28;20525;-72
2022/02/06 10:16:51;;;;;;;14.73;3.25;;;;;;;;;;5093713;28;20110;-72
2022/02/06 10:19:17;;;;;;;15.75;4.07;;;;;;;;;;5093660;28;20357;-72
2022/02/06 10:21:54;;;;;;;13.75;3.60;;;;;;;;;;5093716;28;20028;-72
2022/02/06 10:24:26;;;;;;;15.07;3.78;;;;;;;;;;5093844;28;20050;-71
2022/02/06 10:29:42;;;;;;;19.98;4.22;;;;;;;;;;5093961;28;20073;-71
2022/02/06 10:32:16;;;;;;;17.60;3.78;;;;;;;;;;5081834;27;20035;-71
2022/02/06 10:34:42;;;;;;;15.90;4.20;;;;;;;;;;5104041;28;20475;-71
2022/02/06 10:37:22;;;;;;;20.48;4.28;;;;;;;;;;5093720;28;20020;-72
2022/02/06 10:39:56;;;;;;;25.67;5.07;;;;;;;;;;5075385;28;20017;-71
2022/02/06 10:42:33;;;;;;;18.45;4.00;;;;;;;;;;5093425;28;20564;-72
2022/02/06 10:45:14;;;;;;;14.73;3.75;;;;;;;;;;5093509;28;20099;-73
2022/02/06 10:47:41;;;;;;;15.95;3.72;;;;;;;;;;5075301;28;20020;-72
2022/02/06 10:50:09;;;;;;;17.20;3.72;;;;;;;;;;5102165;28;20031;-72
2022/02/06 10:52:35;;;;;;;14.07;3.70;;;;;;;;;;5113441;28;20394;-71
2022/02/06 10:55:01;;;;;;;15.00;3.78;;;;;;;;;;5113761;28;20024;-71
2022/02/06 10:57:28;;;;;;;21.48;3.90;;;;;;;;;;5095448;28;20441;-72
2022/02/06 10:59:54;;;;;;;13.75;3.45;;;;;;;;;;5095260;28;20030;-71
2022/02/06 11:02:23;;;;;;;17.25;4.18;;;;;;;;;;5095272;28;20042;-71
2022/02/06 11:04:56;;;;;;;15.82;3.40;;;;;;;;;;5113461;28;20378;-72
2022/02/06 11:07:22;;;;;;;15.45;3.50;;;;;;;;;;5112841;28;20024;-71
2022/02/06 11:09:48;;;;;;;10.50;2.90;;;;;;;;;;5105203;28;20028;-71
2022/02/06 11:12:15;;;;;;;13.93;3.53;;;;;;;;;;5113378;28;20092;-71
2022/02/06 11:14:49;;;;;;;15.07;3.20;;;;;;;;;;5113414;28;20023;-71
2022/02/06 11:17:23;;;;;;;11.38;3.53;;;;;;;;;;5112946;28;20473;-70
2022/02/06 11:20:03;;;;;;;12.77;3.28;;;;;;;;;;5113339;28;20019;-70
2022/02/06 11:22:30;;;;;;;12.25;2.80;;;;;;;;;;5097822;28;20028;-70
2022/02/06 11:24:56;;;;;;;15.05;3.42;;;;;;;;;;5092932;28;20107;-71
2022/02/06 11:27:22;;;;;;;12.63;3.50;;;;;;;;;;5092872;28;20086;-70
2022/02/06 11:29:47;;;;;;;12.90;3.33;;;;;;;;;;5092642;28;20158;-71
2022/02/06 11:32:14;;;;;;;11.13;3.28;;;;;;;;;;5092620;28;20051;-71
2022/02/06 11:34:44;;;;;;;13.80;3.35;;;;;;;;;;5074548;28;20379;-71
2022/02/06 11:46:08;;;;;;;9.27;2.47;;;;;;;;;;5094983;28;20039;-71
2022/02/06 11:48:34;;;;;;;7.63;2.40;;;;;;;;;;5098612;28;20754;-71
2022/02/06 11:51:00;;;;;;;10.55;2.72;;;;;;;;;;5096604;28;20024;-70
2022/02/06 11:53:28;;;;;;;16.77;2.72;;;;;;;;;;5092613;28;20037;-71
2022/02/06 11:55:55;;;;;;;13.27;2.40;;;;;;;;;;5116736;28;20160;-71
2022/02/06 11:58:23;;;;;;;7.80;2.30;;;;;;;;;;5117051;28;20027;-72
2022/02/06 12:01:08;;;;;;;6.57;1.90;;;;;;;;;;5116767;28;20035;-73
2022/02/06 12:03:53;;;;;;;14.52;2.60;;;;;;;;;;5117370;28;20027;-72
2022/02/06 12:06:20;;;;;;;8.50;2.00;;;;;;;;;;5117065;28;20062;-72
2022/02/06 12:08:58;;;;;;;13.23;2.45;;;;;;;;;;5116870;28;20042;-76
2022/02/06 12:11:24;;;;;;;5.85;1.55;;;;;;;;;;5104188;28;20028;-69
2022/02/06 12:14:10;;;;;;;11.65;2.13;;;;;;;;;;5096322;28;20024;-72
2022/02/06 12:16:44;;;;;;;6.93;1.73;;;;;;;;;;5096430;28;20016;-72
2022/02/06 12:19:26;;;;;;;5.15;1.55;;;;;;;;;;5099195;28;20028;-74
2022/02/06 12:21:52;;;;;;;9.70;1.52;;;;;;;;;;5101326;28;20115;-71
2022/02/06 12:24:37;;;;;;;5.68;1.20;;;;;;;;;;5108596;28;20749;-70
2022/02/06 12:27:22;;;;;;;19.73;1.95;;;;;;;;;;5104548;28;20043;-72
2022/02/06 12:29:56;;;;;;;13.25;2.13;;;;;;;;;;5116953;28;20363;-70
2022/02/06 12:32:29;;;;;;;26.35;2.30;;;;;;;;;;5097996;28;20363;-75
2022/02/06 12:37:41;;;;;;;9.27;1.65;;;;;;;;;;5116714;28;20030;-74
2022/02/06 12:40:08;;;;;;;9.18;1.50;;;;;;;;;;5115135;28;20028;-72
2022/02/06 12:42:34;;;;;;;8.80;1.70;;;;;;;;;;5086535;28;20066;-73
2022/02/06 12:45:01;;;;;;;7.63;1.73;;;;;;;;;;5116192;28;20051;-75
2022/02/06 12:47:28;;;;;;;21.92;2.05;;;;;;;;;;5116103;28;20028;-74
2022/02/06 12:49:55;;;;;;;11.57;1.75;;;;;;;;;;5116087;28;20023;-75
2022/02/06 12:52:21;;;;;;;12.20;1.50;;;;;;;;;;5115861;28;20027;-75
2022/02/06 12:54:47;;;;;;;10.95;1.48;;;;;;;;;;5115831;28;20555;-75
2022/02/06 12:57:18;;;;;;;10.55;1.45;;;;;;;;;;5092772;28;20075;-73
2022/02/06 12:59:44;;;;;;;13.93;1.30;;;;;;;;;;5095069;28;20055;-72
2022/02/06 13:02:11;;;;;;;11.65;1.60;;;;;;;;;;5097093;28;20063;-73
2022/02/06 13:04:42;;;;;;;15.05;1.65;;;;;;;;;;5104192;28;20081;-73
2022/02/06 13:07:08;;;;;;;8.30;1.30;;;;;;;;;;5103981;28;20069;-77
2022/02/06 13:09:39;;;;;;;8.63;1.60;;;;;;;;;;5095531;28;20024;-70
2022/02/06 13:12:13;;;;;;;5.30;1.50;;;;;;;;;;5102641;28;20527;-77
2022/02/06 13:20:04;;;;;;;6.40;1.63;;;;;;;;;;5136596;27;20512;-72
2022/02/06 13:30:47;;;;;;;10.77;1.50;;;;;;;;;;5095370;28;20028;-70
2022/02/06 13:33:37;;;;;;;5.68;1.30;;;;;;;;;;5087774;28;20475;-76
2022/02/06 13:36:51;;;;;;;14.98;1.50;;;;;;;;;;5094905;28;20058;-69
2022/02/06 13:38:58;;;;;;;5.47;1.33;;;;;;;;;;5080604;28;20074;-76
2022/02/06 13:41:31;;;;;;;9.23;1.42;;;;;;;;;;5077646;28;20081;-69
2022/02/06 13:43:58;;;;;;;8.63;1.50;;;;;;;;;;5094823;28;20035;-81
2022/02/06 13:46:36;;;;;;;7.22;1.50;;;;;;;;;;5101605;28;20057;-69
2022/02/06 13:49:03;;;;;;;3.42;0.98;;;;;;;;;;5097503;28;20028;-75
2022/02/06 13:51:32;;;;;;;6.22;1.30;;;;;;;;;;5106288;28;20039;-74
2022/02/06 13:54:00;;;;;;;8.35;1.50;;;;;;;;;;5095598;28;20086;-72
2022/02/06 13:56:28;;;;;;;7.85;1.23;;;;;;;;;;5092803;28;20484;-72
2022/02/06 13:59:01;;;;;;;7.18;1.42;;;;;;;;;;5108620;28;20110;-73
2022/02/06 14:01:40;;;;;;;7.88;1.35;;;;;;;;;;5114283;28;20032;-73
2022/02/06 14:04:29;;;;;;;5.22;1.13;;;;;;;;;;5102185;28;20032;-69
2022/02/06 14:07:07;;;;;;;9.55;1.38;;;;;;;;;;5083491;28;20048;-71
2022/02/06 14:09:47;;;;;;;9.07;1.48;;;;;;;;;;5105041;28;20020;-70
2022/02/06 14:12:19;;;;;;;7.45;1.70;;;;;;;;;;5106032;28;20027;-71
2022/02/06 14:15:02;;;;;;;7.10;1.65;;;;;;;;;;5100859;28;20368;-69
2022/02/06 14:17:38;;;;;;;23.13;2.78;;;;;;;;;;5094586;28;20459;-70
2022/02/06 14:20:09;;;;;;;46.50;4.45;;;;;;;;;;5082488;28;20032;-70
2022/02/06 14:22:36;;;;;;;45.10;3.97;;;;;;;;;;5106859;28;20031;-77
2022/02/06 14:25:06;;;;;;;32.22;5.43;;;;;;;;;;5095128;28;20020;-76
2022/02/06 14:27:36;;;;;;;37.72;4.90;;;;;;;;;;5106847;28;20081;-75
2022/02/06 14:30:05;;;;;;;29.95;4.63;;;;;;;;;;5111496;28;20035;-75
2022/02/06 14:32:32;;;;;;;40.33;4.15;;;;;;;;;;5101489;28;20028;-75
2022/02/06 14:34:58;;;;;;;18.23;3.75;;;;;;;;;;5075352;28;20060;-74
2022/02/06 14:37:29;;;;;;;29.90;2.97;;;;;;;;;;5105089;28;20023;-74
2022/02/06 14:39:59;;;;;;;19.90;3.30;;;;;;;;;;5134358;27;20466;-72
2022/02/06 14:42:27;;;;;;;11.70;3.13;;;;;;;;;;5122325;27;20032;-73
2022/02/06 14:44:53;;;;;;;10.05;2.20;;;;;;;;;;5095504;28;20027;-74
2022/02/06 14:47:19;;;;;;;12.60;2.35;;;;;;;;;;5088272;28;20027;-73
2022/02/06 14:49:45;;;;;;;8.63;1.92;;;;;;;;;;5093316;28;20020;-72
2022/02/06 14:52:11;;;;;;;9.98;2.40;;;;;;;;;;5102287;28;20102;-73
2022/02/06 14:54:42;;;;;;;8.57;2.05;;;;;;;;;;5095534;28;20103;-73
2022/02/06 14:57:10;;;;;;;10.85;1.85;;;;;;;;;;5113504;28;20051;-74
2022/02/06 14:59:36;;;;;;;11.25;1.83;;;;;;;;;;5113954;28;20103;-73
2022/02/06 15:02:03;;;;;;;9.27;2.00;;;;;;;;;;5113470;28;20059;-73
2022/02/06 15:04:29;;;;;;;8.02;1.67;;;;;;;;;;5114054;28;20027;-73
2022/02/06 15:06:55;;;;;;;10.38;2.00;;;;;;;;;;5113451;28;20012;-73
2022/02/06 15:09:22;;;;;;;9.40;2.00;;;;;;;;;;5112725;28;20099;-72
2022/02/06 15:11:48;;;;;;;8.70;2.33;;;;;;;;;;5127377;28;20076;-73
2022/02/06 15:14:14;;;;;;;5.63;1.50;;;;;;;;;;5113545;28;20023;-74
2022/02/06 15:16:41;;;;;;;7.85;1.48;;;;;;;;;;5110035;28;20031;-72
2022/02/06 15:19:26;;;;;;;6.35;1.65;;;;;;;;;;5109775;28;20089;-73
2022/02/06 15:21:52;;;;;;;10.05;1.60;;;;;;;;;;5099376;28;20045;-72
2022/02/06 15:24:19;;;;;;;7.70;1.88;;;;;;;;;;5117711;28;20102;-73
2022/02/06 15:26:45;;;;;;;5.85;1.50;;;;;;;;;;5117325;28;20412;-71
2022/02/06 15:29:11;;;;;;;5.05;1.58;;;;;;;;;;5117584;28;20536;-72
2022/02/06 15:31:37;;;;;;;5.13;1.50;;;;;;;;;;5117235;28;20028;-73
2022/02/06 15:34:03;;;;;;;9.50;1.83;;;;;;;;;;5113708;27;20023;-73
2022/02/06 15:36:31;;;;;;;5.38;1.50;;;;;;;;;;5112021;28;20027;-73
2022/02/06 15:38:57;;;;;;;8.98;1.70;;;;;;;;;;5113496;28;20099;-73
2022/02/06 15:41:24;;;;;;;8.18;1.67;;;;;;;;;;5099763;28;20035;-73
2022/02/06 15:43:50;;;;;;;6.03;1.75;;;;;;;;;;5096272;28;20084;-73
2022/02/06 15:46:16;;;;;;;5.45;1.63;;;;;;;;;;5098842;28;20020;-74
2022/02/06 15:48:42;;;;;;;8.07;1.70;;;;;;;;;;5106767;28;20435;-74
2022/02/06 15:51:08;;;;;;;7.63;1.98;;;;;;;;;;5096779;28;20106;-74
2022/02/06 15:53:34;;;;;;;7.15;2.00;;;;;;;;;;5117185;28;20020;-74
2022/02/06 15:56:00;;;;;;;7.10;1.80;;;;;;;;;;5117192;28;20127;-73
2022/02/06 15:58:26;;;;;;;6.63;1.58;;;;;;;;;;5095042;28;20119;-73
2022/02/06 16:00:52;;;;;;;7.47;1.75;;;;;;;;;;5116706;28;20429;-74
2022/02/06 16:03:20;;;;;;;6.45;1.50;;;;;;;;;;5105650;28;20110;-74
2022/02/06 16:05:46;;;;;;;7.32;1.42;;;;;;;;;;5097725;28;20073;-74
2022/02/06 16:08:12;;;;;;;7.15;1.90;;;;;;;;;;5115018;28;20119;-74
2022/02/06 16:10:40;;;;;;;9.68;1.42;;;;;;;;;;5098452;28;20053;-73
2022/02/06 16:13:08;;;;;;;7.00;1.58;;;;;;;;;;5131678;27;20035;-73
2022/02/06 16:15:35;;;;;;;13.32;2.00;;;;;;;;;;5137410;27;20102;-72
2022/02/06 16:18:00;;;;;;;8.05;1.80;;;;;;;;;;5102198;28;20390;-73
2022/02/06 16:20:26;;;;;;;6.60;1.33;;;;;;;;;;5116905;28;20471;-74
2022/02/06 16:22:52;;;;;;;10.05;1.95;;;;;;;;;;5116017;28;20036;-74
2022/02/06 16:25:20;;;;;;;5.75;1.33;;;;;;;;;;5131968;27;20025;-71
2022/02/06 16:27:46;;;;;;;7.55;1.60;;;;;;;;;;5119080;27;20035;-70
2022/02/06 16:30:14;;;;;;;5.53;1.13;;;;;;;;;;5125347;27;20027;-70
2022/02/06 16:32:40;;;;;;;7.47;1.63;;;;;;;;;;5103213;28;20054;-71
2022/02/06 16:35:06;;;;;;;7.25;1.75;;;;;;;;;;5102840;28;20031;-69
2022/02/06 16:37:33;;;;;;;8.30;1.85;;;;;;;;;;5107646;28;20027;-69
2022/02/06 16:40:00;;;;;;;7.32;1.60;;;;;;;;;;5116228;28;20023;-71
2022/02/06 16:42:26;;;;;;;4.15;1.20;;;;;;;;;;5115555;28;20662;-70
2022/02/06 16:44:52;;;;;;;5.30;1.10;;;;;;;;;;5096198;28;20020;-70
2022/02/06 16:47:19;;;;;;;6.15;1.20;;;;;;;;;;5099038;28;20525;-70
2022/02/06 16:49:45;;;;;;;6.88;1.42;;;;;;;;;;5134075;27;20027;-69
2022/02/06 16:52:12;;;;;;;7.00;1.38;;;;;;;;;;5125496;27;20031;-68
2022/02/06 16:54:38;;;;;;;6.63;1.50;;;;;;;;;;5115709;28;20103;-67
2022/02/06 16:57:05;;;;;;;6.00;1.45;;;;;;;;;;5115279;28;20091;-69
2022/02/06 16:59:31;;;;;;;6.07;1.63;;;;;;;;;;5098315;28;20020;-70
2022/02/06 17:01:57;;;;;;;4.47;1.30;;;;;;;;;;5098576;28;20384;-70
2022/02/06 17:04:24;;;;;;;5.10;1.38;;;;;;;;;;5077366;28;20020;-71
2022/02/06 17:06:50;;;;;;;8.90;1.73;;;;;;;;;;5104718;27;20474;-71
2022/02/06 17:09:17;;;;;;;7.38;1.13;;;;;;;;;;5120353;27;20125;-70
2022/02/06 17:11:45;;;;;;;7.50;1.30;;;;;;;;;;5105278;28;20100;-70
2022/02/06 17:14:16;;;;;;;7.25;1.45;;;;;;;;;;5113057;27;20072;-71